Station: Ross  

  Atmospheric Gas Attenuation - ITU Rec 676-11   ----------------- dB/100km -----------------
Date Time Temp RH % AH g/m3 Dew Point Wind Direction Speed kph Gust kph Barometer mB Rainfall Since 9am 24GHz 47GHz 76GHz 122GHz 134GHz 241GHz
08/05 09:00 10.5 62 6.01 3.5 11 1013.1 0.4 14.2 22.7 31.1 81.3 68.6 233.6
07/05 09:00 6.6 61 4.61 -0.3 13 1013.1 6 11.3 21.5 27.3 70.9 54.2 182.6
06/05 09:00 12.9 84 9.47 10.2 19 1013.1 0 21.5 27.6 43.8 115.2 111.4 383.7
05/05 09:00 8 99 8.19 7.8 0 1013.1 5 19.0 26.9 41.1 107.8 100.3 344.3
04/05 09:00 11.4 94 9.65 10.4 2 1013.1 4 22.0 28.4 45.5 119.5 116.1 400.1
03/05 09:00 10.6 90 8.79 9 2 1013.1 0 20.2 27.2 42.2 110.9 105.2 361.8
02/05 09:00 7.8 91 7.43 6.5 6 1013.1 0 17.4 25.7 38.0 99.5 90.0 308.1
01/05 09:00 12.9 96 10.82 12.3 2 1013.1 0 24.4 29.9 49.7 130.7 130.4 450.4
30/04 09:00 14.4 87 10.75 12.2 13 1013.1 0.2 24.2 29.3 48.4 127.4 126.9 438.2
29/04 09:00 8.9 69 6.05 3.6 4 1013.1 0 14.3 23.2 31.9 83.4 70.5 240.2
28/04 09:00 8.6 97 8.34 8.2 7 1013.1 0 19.3 27.0 41.4 108.7 101.6 349.0
27/04 09:00 12.3 97 10.53 11.9 2 1013.1 0 23.8 29.6 48.8 128.3 127.3 439.2
26/04 09:00 11.9 88 9.32 10 4 1013.1 0 21.2 27.7 43.8 115.0 110.7 381.4
25/04 09:00 13.2 86 9.88 10.9 6 1013.1 0 22.4 28.2 45.4 119.4 116.6 402.1
24/04 09:00 13.6 91 10.71 12.1 13 1013.1 0.2 24.1 29.5 48.7 128.3 127.7 440.8
23/04 09:00 13.9 86 10.31 11.7 11 1013.1 0.8 23.2 28.7 46.8 123.2 121.5 419.4
22/04 09:00 13.2 74 8.5 8.7 15 1013.1 0 19.4 25.9 39.7 104.2 97.8 336.4
21/04 09:00 7.5 93 7.45 6.4 6 1013.1 0 17.4 25.8 38.2 100.1 90.6 310.3
20/04 09:00 6.1 97 7.09 5.7 4 1013.1 0 16.7 25.6 37.3 97.8 87.2 298.3
19/04 09:00 2 89 4.95 0.4 4 1013.1 0 12.2 23.2 30.2 78.8 62.0 209.3
18/04 09:00 10.2 51 4.85 0.5 15 1013.1 0 11.7 21.0 27.0 70.1 54.7 184.7
17/04 09:00 11.2 49 4.97 1 19 1013.1 0.4 12.0 21.0 27.1 70.4 55.4 187.4
16/04 09:00 11.2 79 8.01 7.7 13 1013.1 0 18.4 25.7 38.7 101.5 93.8 321.9
15/04 09:00 10 59 5.55 2.3 9 1013.1 0 13.2 22.1 29.6 77.2 63.3 215.0
14/04 09:00 8.4 73 6.2 3.8 11 1013.1 0 14.7 23.5 32.7 85.5 72.9 248.5
13/04 09:00 11.6 69 7.17 6.1 9 1013.1 0 16.6 24.2 35.2 92.0 82.3 281.7
12/04 09:00 9.7 52 4.8 0.4 15 1013.1 2 11.6 21.1 27.0 70.1 54.4 183.7
11/04 09:00 8 67 5.54 2.3 37 1013.1 6 13.3 22.6 30.3 79.0 64.8 220.0
09/04 09:00 12.3 83 9.01 9.6 13 1013.1 0 20.5 27.0 42.2 111.0 105.9 364.5
08/04 09:00 8.7 76 6.58 4.7 2 1013.1 0 15.5 24.1 34.1 89.1 77.6 264.9
07/04 09:00 13.5 95 11.11 12.8 0 1013.1 4 25.0 30.2 50.5 133.1 133.6 461.5
06/04 09:00 12.1 76 8.15 8.1 4 1013.1 0 18.7 25.6 38.8 101.8 94.5 324.8
05/04 09:00 10.8 78 7.71 7.1 7 1013.1 17.8 25.3 37.7 98.7 90.2 309.5
04/04 09:00 2.4 86 4.92 0.3 6 1013.1 0 12.1 23.0 30.0 78.1 61.3 206.9
03/04 09:00 10.5 47 4.56 -0.4 11 1013.1 0 11.1 20.6 25.8 67.1 51.0 171.9
02/04 09:00 10.6 99 9.66 10.4 0 1013.1 0.6 22.0 28.7 46.0 120.9 117.5 404.8
01/04 09:00 13.6 86 10.12 11.4 7 1013.1 0 22.9 28.5 46.2 121.5 119.3 411.7
31/03 09:00 13.9 90 10.79 12.3 9 1013.1 0 24.3 29.5 48.9 128.7 128.3 443.1
30/03 09:00 11.9 88 9.32 10 4 1013.1 0 21.2 27.7 43.8 115.0 110.7 381.4
29/03 09:00 4.4 95 6.21 3.7 0 1013.1 0 14.9 24.6 34.4 90.1 76.9 261.9
28/03 09:00 5 92 6.26 3.8 2 1013.1 0 14.9 24.5 34.4 89.9 77.0 262.3
27/03 09:00 9.1 61 5.41 2 26 1013.1 0 13.0 22.1 29.4 76.6 62.3 211.3
26/03 09:00 12.6 94 10.4 11.7 4 1013.1 3 23.5 29.3 48.0 126.3 124.9 431.0
25/03 09:00 16.6 91 12.85 15.2 7 1013.1 2 28.5 32.2 56.1 148.1 153.1 529.9
24/03 09:00 14.4 89 11 12.6 15 1013.1 2 24.7 29.7 49.5 130.3 130.5 450.6
23/03 09:00 17.3 86 12.67 14.9 9 1013.1 0 28.1 31.6 54.8 144.6 149.1 516.0
22/03 09:00 11.4 94 9.65 10.4 2 1013.1 0 22.0 28.4 45.5 119.5 116.1 400.1
21/03 09:00 10.5 91 8.83 9.1 2 1013.1 0 20.2 27.3 42.5 111.5 105.9 364.2
20/03 09:00 14.4 90 11.13 12.8 4 1013.1 0 25.0 30.0 50.0 131.8 132.3 457.1
19/03 09:00 13.1 89 10.16 11.4 4 1013.1 0 23.0 28.7 46.7 122.7 120.7 416.3
18/03 09:00 10.4 96 9.25 9.8 4 1013.1 0 21.2 28.0 44.3 116.5 111.9 385.4
17/03 09:00 12.3 97 10.53 11.9 2 1013.1 3 23.8 29.6 48.8 128.3 127.3 439.2
16/03 09:00 12 95 10.13 11.2 2 1013.1 0 23.0 29.0 47.2 124.2 122.0 420.8
15/03 09:00 12.6 85 9.4 10.1 0 1013.1 0 21.4 27.6 43.7 114.9 110.8 381.8
14/03 09:00 7.4 90 7.16 5.9 2 1013.1 0 16.8 25.4 37.0 97.0 86.7 296.7
13/03 09:00 10.1 62 5.86 3.3 6 1013.1 0.6 13.9 22.6 30.7 80.2 67.1 228.2
12/03 09:00 9.1 92 8.17 7.9 4 1013.1 8 18.9 26.6 40.4 106.0 98.6 338.4
11/03 09:00 15.3 96 12.54 14.6 4 1013.1 3 28.0 32.2 55.7 146.8 151.1 523.0
10/03 09:00 12.9 88 9.92 11 4 1013.1 0 22.5 28.4 45.7 120.3 117.6 405.6
09/03 09:00 10.2 82 7.81 7.3 0 1013.1 0 18.1 25.6 38.4 100.6 92.3 316.6
08/03 09:00 12.4 65 7.1 6.1 15 1013.1 0 16.4 23.9 34.5 90.4 80.5 275.8
07/03 09:00 13.5 63 7.37 6.7 9 1013.1 0 17.0 24.0 35.1 91.9 82.8 283.9
06/03 09:00 13.6 88 10.36 11.7 2 1013.1 0 23.4 28.9 47.2 124.2 122.7 423.5
05/03 09:00 14.9 78 9.94 11.2 26 1013.1 0 22.4 27.8 44.7 117.5 114.9 396.2
04/03 09:00 16 83 11.31 13.2 7 1013.1 0 25.3 29.7 49.8 131.1 132.1 456.5
03/03 09:00 13.5 81 9.47 10.3 15 1013.1 7 21.5 27.4 43.5 114.3 110.5 380.8
02/03 09:00 17.4 94 13.93 16.4 0 1013.1 4 30.8 33.9 60.4 159.5 167.4 579.9
01/03 09:00 19 59 9.61 10.8 19 1013.1 0 21.5 26.0 41.1 108.1 104.7 361.3
28/02 09:00 12.5 83 9.13 9.8 6 1013.1 0 20.8 27.2 42.6 112.0 107.3 369.3
27/02 09:00 10.5 78 7.57 6.9 9 1013.1 0 17.5 25.2 37.2 97.6 88.7 304.2
26/02 09:00 12.5 59 6.49 4.7 6 1013.1 0 15.1 22.9 32.2 84.1 72.8 248.6
25/02 09:00 14.4 67 8.28 8.5 19 1013.1 0 18.9 25.2 38.2 100.3 93.5 321.3
24/02 09:00 12.6 81 8.96 9.5 9 1013.1 0 20.4 26.8 41.9 110.0 104.8 360.7
23/02 09:00 11.2 72 7.3 6.4 9 1013.1 5 16.9 24.5 35.8 93.9 84.4 289.1
22/02 09:00 17.2 78 11.42 13.3 15 1013.1 0 25.4 29.5 49.5 130.4 131.6 454.9
21/02 09:00 14.4 94 11.62 13.5 2 1013.1 0 26.0 30.8 52.2 137.5 139.4 481.8
20/02 09:00 11.2 77 7.81 7.3 0 1013.1 0 18.0 25.4 37.9 99.3 91.1 312.6
19/02 09:00 16.4 64 8.93 9.6 19 1013.1 0 20.2 25.7 39.8 104.5 99.4 342.3
18/02 09:00 12.4 72 7.87 7.5 7 1013.1 5 18.1 25.1 37.6 98.4 90.5 310.6
17/02 09:00 17.1 75 10.92 12.6 15 1013.1 0 24.4 28.7 47.5 124.9 124.8 431.3
16/02 09:00 16.5 66 9.27 10.1 6 1013.1 0 20.9 26.2 41.1 107.9 103.7 357.3
15/02 09:00 15.6 77 10.24 11.6 0 1013.1 0 23.0 28.0 45.5 119.7 117.9 406.9
14/02 09:00 13.7 79 9.36 10.1 0 1013.1 0 21.2 27.2 42.9 112.8 108.7 374.5
13/02 09:00 12.1 53 5.68 2.8 9 1013.1 0 13.4 21.8 29.3 76.4 63.2 215.0
12/02 09:00 10.8 57 5.64 2.8 4 1013.1 0.4 13.4 22.1 29.6 77.3 63.8 216.7
11/02 09:00 17.2 83 12.15 14.3 19 1013.1 0 27.0 30.8 52.6 138.7 141.8 490.7
10/02 09:00 16.1 83 11.38 13.3 0 1013.1 0 25.4 29.8 50.0 131.8 132.9 459.4
09/02 09:00 12.2 92 9.93 10.9 7 1013.1 5 22.5 28.6 46.2 121.5 118.8 409.8
07/02 09:00 14.4 65 8.04 8 2 1013.1 0 18.4 24.8 37.3 97.8 90.4 310.5
06/02 09:00 10.9 69 6.86 5.5 4 1013.1 0 16.0 23.9 34.2 89.6 79.0 270.2
05/02 09:00 16.3 43 5.97 3.7 9 1013.1 0 13.9 21.3 28.9 75.3 63.3 215.8
04/02 09:00 14.6 84 10.51 12 6 1013.1 0 23.6 28.8 47.2 124.3 123.2 425.3
03/02 09:00 13.6 62 7.3 6.4 9 1013.1 0 16.8 23.9 34.8 91.1 81.8 280.4
02/02 09:00 9 70 6.17 3.8 0 1013.1 0.8 14.6 23.3 32.4 84.5 72.0 245.3
01/02 09:00 15.4 42 5.52 2.6 11 1013.1 0 13.0 20.8 27.6 71.9 58.8 199.9
31/01 09:00 17.7 74 11.16 13.1 7 1013.1 0 24.8 28.9 48.1 126.6 127.1 439.5
30/01 09:00 15.4 79 10.38 11.9 4 1013.1 0 23.3 28.3 46.2 121.6 120.1 414.7
29/01 09:00 14.9 63 8.03 8 7 1013.1 0 18.3 24.7 37.0 97.0 89.7 308.1
28/01 09:00 17.6 81 12.15 14.3 0 1013.1 0 27.0 30.6 52.4 138.0 141.1 488.1
27/01 09:00 14.5 77 9.58 10.5 15 1013.1 0 21.7 27.3 43.4 114.1 110.6 381.1

Last Refresh: 08-May-2026 12:07:19

Bureau of Meteorology